createdAt,value
2018-04-07T00:02:12.475Z,8.00
2018-04-07T00:04:40.504Z,8.00
2018-04-07T00:07:08.543Z,7.90
2018-04-07T00:09:36.571Z,7.90
2018-04-07T00:12:04.603Z,7.90
2018-04-07T00:14:32.647Z,7.90
2018-04-07T00:17:00.688Z,7.90
2018-04-07T00:19:28.752Z,7.80
2018-04-07T00:21:56.792Z,7.80
2018-04-07T00:24:24.814Z,7.80
2018-04-07T00:26:52.852Z,7.80
2018-04-07T00:29:20.890Z,7.80
2018-04-07T00:31:49.707Z,7.70
2018-04-07T00:34:17.743Z,7.70
2018-04-07T00:36:45.770Z,7.70
2018-04-07T00:39:13.808Z,7.60
2018-04-07T00:41:42.625Z,7.60
2018-04-07T00:44:10.660Z,7.50
2018-04-07T00:46:38.698Z,7.50
2018-04-07T00:49:06.755Z,7.50
2018-04-07T00:51:34.800Z,7.50
2018-04-07T00:54:02.830Z,7.40
2018-04-07T00:56:30.876Z,7.40
2018-04-07T00:58:58.912Z,7.30
2018-04-07T01:01:26.939Z,7.30
2018-04-07T01:03:54.985Z,7.30
2018-04-07T01:06:23.035Z,7.30
2018-04-07T01:08:51.055Z,7.30
2018-04-07T01:11:19.096Z,7.20
2018-04-07T01:13:47.128Z,7.20
2018-04-07T01:16:15.923Z,7.10
2018-04-07T01:18:43.958Z,7.10
2018-04-07T01:21:11.995Z,7.10
2018-04-07T01:23:40.034Z,7.20
2018-04-07T01:26:08.845Z,7.10
2018-04-07T01:28:36.879Z,7.10
2018-04-07T01:31:04.907Z,7.10
2018-04-07T01:33:32.946Z,7.10
2018-04-07T01:36:00.975Z,7.00
2018-04-07T01:38:29.003Z,7.00
2018-04-07T01:40:57.057Z,6.90
2018-04-07T01:43:25.087Z,6.90
2018-04-07T01:45:53.123Z,6.90
2018-04-07T01:48:21.168Z,6.80
2018-04-07T01:50:49.194Z,6.80
2018-04-07T01:53:17.229Z,6.80
2018-04-07T01:55:45.276Z,6.70
2018-04-07T01:58:14.091Z,6.70
2018-04-07T02:00:42.128Z,6.70
2018-04-07T02:03:10.935Z,6.70
2018-04-07T02:05:38.967Z,6.70
2018-04-07T02:10:54.031Z,6.60
2018-04-07T02:13:22.068Z,6.60
2018-04-07T02:15:53.311Z,6.60
2018-04-07T02:18:21.338Z,6.60
2018-04-07T02:20:49.458Z,6.50
2018-04-07T02:23:17.507Z,6.50
2018-04-07T02:25:45.535Z,6.40
2018-04-07T02:28:13.558Z,6.40
2018-04-07T02:30:42.364Z,6.30
2018-04-07T02:33:10.400Z,6.30
2018-04-07T02:35:38.450Z,6.40
2018-04-07T02:38:06.501Z,6.40
2018-04-07T02:40:34.524Z,6.40
2018-04-07T02:43:03.323Z,6.40
2018-04-07T02:45:31.378Z,6.40
2018-04-07T02:47:59.415Z,6.40
2018-04-07T02:50:27.447Z,6.40
2018-04-07T02:52:55.478Z,6.50
2018-04-07T02:55:23.531Z,6.50
2018-04-07T02:57:51.568Z,6.50
2018-04-07T03:00:19.596Z,6.50
2018-04-07T03:02:47.647Z,6.50
2018-04-07T03:05:15.678Z,6.50
2018-04-07T03:07:43.724Z,6.60
2018-04-07T03:10:11.767Z,6.60
2018-04-07T03:12:39.791Z,6.60
2018-04-07T03:15:07.839Z,6.60
2018-04-07T03:17:35.870Z,6.60
2018-04-07T03:20:03.894Z,6.60
2018-04-07T03:22:31.943Z,6.60
2018-04-07T03:24:59.976Z,6.60
2018-04-07T03:27:28.004Z,6.70
2018-04-07T03:29:56.039Z,6.60
2018-04-07T03:32:24.093Z,6.60
2018-04-07T03:34:52.119Z,6.60
2018-04-07T03:37:20.927Z,6.60
2018-04-07T03:39:48.967Z,6.60
2018-04-07T03:42:16.999Z,6.60
2018-04-07T03:44:45.052Z,6.60
2018-04-07T03:47:13.094Z,6.60
2018-04-07T03:49:41.896Z,6.50
2018-04-07T03:52:09.923Z,6.50
2018-04-07T03:54:37.963Z,6.50
2018-04-07T03:57:05.995Z,6.50
2018-04-07T03:59:34.807Z,6.50
2018-04-07T04:02:02.883Z,6.50
2018-04-07T04:04:30.899Z,6.50
2018-04-07T04:06:58.940Z,6.50
2018-04-07T04:09:27.227Z,6.50
2018-04-07T04:11:56.052Z,6.50
2018-04-07T04:14:24.078Z,6.40
2018-04-07T04:16:52.111Z,6.40
2018-04-07T04:19:20.923Z,6.50
2018-04-07T04:21:48.952Z,6.50
2018-04-07T04:24:16.979Z,6.50
2018-04-07T04:26:45.011Z,6.50
2018-04-07T04:29:13.811Z,6.50
2018-04-07T04:31:42.600Z,6.50
2018-04-07T04:34:14.822Z,6.50
2018-04-07T04:36:42.856Z,6.50
2018-04-07T04:39:10.883Z,6.50
2018-04-07T04:41:38.931Z,6.60
2018-04-07T04:44:06.967Z,6.60
2018-04-07T04:46:35.007Z,6.60
2018-04-07T04:49:03.051Z,6.60
2018-04-07T04:51:31.097Z,6.70
2018-04-07T04:53:59.134Z,6.60
2018-04-07T04:56:27.175Z,6.70
2018-04-07T04:58:55.206Z,6.70
2018-04-07T05:01:23.235Z,6.70
2018-04-07T05:03:52.050Z,6.70
2018-04-07T05:06:20.087Z,6.70
2018-04-07T05:08:48.115Z,6.80
2018-04-07T05:11:16.155Z,6.80
2018-04-07T05:13:44.959Z,6.80
2018-04-07T05:16:12.991Z,6.80
2018-04-07T05:18:41.035Z,6.80
2018-04-07T05:21:09.071Z,6.90
2018-04-07T05:23:37.124Z,6.90
2018-04-07T05:26:05.935Z,7.00
2018-04-07T05:28:33.966Z,6.90
2018-04-07T05:31:01.999Z,6.90
2018-04-07T05:33:30.063Z,7.00
2018-04-07T05:35:58.106Z,6.90
2018-04-07T05:38:26.958Z,7.00
2018-04-07T05:40:54.964Z,7.00
2018-04-07T05:43:23.006Z,7.00
2018-04-07T05:45:51.097Z,7.00
2018-04-07T05:48:19.067Z,7.00
2018-04-07T05:50:47.148Z,7.10
2018-04-07T05:53:15.177Z,7.10
2018-04-07T05:55:43.211Z,7.20
2018-04-07T05:58:11.259Z,7.20
2018-04-07T06:00:39.292Z,7.30
2018-04-07T06:03:08.095Z,7.40
2018-04-07T06:05:36.139Z,7.30
2018-04-07T06:08:04.172Z,7.40
2018-04-07T06:10:32.204Z,7.40
2018-04-07T06:13:00.247Z,7.40
2018-04-07T06:15:28.283Z,7.50
2018-04-07T06:17:57.078Z,7.60
2018-04-07T06:20:25.121Z,7.50
2018-04-07T06:22:53.210Z,7.60
2018-04-07T06:25:21.185Z,7.60
2018-04-07T06:27:49.232Z,7.70
2018-04-07T06:30:17.262Z,7.80
2018-04-07T06:32:45.307Z,7.80
2018-04-07T06:35:13.368Z,7.80
2018-04-07T06:37:42.168Z,8.00
2018-04-07T06:40:10.200Z,7.90
2018-04-07T06:42:38.248Z,8.00
2018-04-07T06:45:06.283Z,8.10
2018-04-07T06:47:34.315Z,8.10
2018-04-07T06:50:02.368Z,8.20
2018-04-07T06:52:30.414Z,8.20
2018-04-07T06:54:58.486Z,8.30
2018-04-07T06:57:26.540Z,8.30
2018-04-07T06:59:54.563Z,8.40
2018-04-07T07:02:22.600Z,8.50
2018-04-07T07:04:50.682Z,8.50
2018-04-07T07:07:18.716Z,8.60
2018-04-07T07:09:46.763Z,8.60
2018-04-07T07:12:14.794Z,8.70
2018-04-07T07:14:46.908Z,8.70
2018-04-07T07:17:14.928Z,8.80
2018-04-07T07:19:42.959Z,8.90
2018-04-07T07:22:11.799Z,9.10
2018-04-07T07:24:39.827Z,9.10
2018-04-07T07:27:07.859Z,9.10
2018-04-07T07:29:35.959Z,9.20
2018-04-07T07:32:03.950Z,9.30
2018-04-07T07:34:31.984Z,9.30
2018-04-07T07:37:00.036Z,9.40
2018-04-07T07:39:28.095Z,9.40
2018-04-07T07:42:03.045Z,9.40
2018-04-07T07:44:32.068Z,9.50
2018-04-07T07:47:00.096Z,9.60
2018-04-07T07:49:28.144Z,9.70
2018-04-07T07:51:58.123Z,9.70
2018-04-07T07:54:26.151Z,9.80
2018-04-07T07:56:54.232Z,9.80
2018-04-07T07:59:22.311Z,9.90
2018-04-07T08:01:50.352Z,10.00
2018-04-07T08:04:20.315Z,10.10
2018-04-07T08:06:49.320Z,10.20
2018-04-07T08:09:17.361Z,10.20
2018-04-07T08:11:45.395Z,10.20
2018-04-07T08:14:14.484Z,10.30
2018-04-07T08:16:43.298Z,10.40
2018-04-07T08:19:11.339Z,10.40
2018-04-07T08:21:42.355Z,10.50
2018-04-07T08:24:10.391Z,10.60
2018-04-07T08:26:38.458Z,10.70
2018-04-07T08:29:06.495Z,10.70
2018-04-07T08:31:35.298Z,10.80
2018-04-07T08:34:03.375Z,10.70
2018-04-07T08:36:31.422Z,10.80
2018-04-07T08:38:59.454Z,10.90
2018-04-07T08:41:27.515Z,10.90
2018-04-07T08:43:55.590Z,11.00
2018-04-07T08:46:23.693Z,11.00
2018-04-07T08:48:51.756Z,11.10
2018-04-07T08:51:19.800Z,11.30
2018-04-07T08:53:47.839Z,11.30
2018-04-07T08:56:16.653Z,11.50
2018-04-07T08:58:46.852Z,11.50
2018-04-07T09:01:14.883Z,11.60
2018-04-07T09:03:42.931Z,11.60
2018-04-07T09:06:11.007Z,11.60
2018-04-07T09:08:39.112Z,11.70
2018-04-07T09:11:07.151Z,11.70
2018-04-07T09:13:35.216Z,11.80
2018-04-07T09:16:03.268Z,11.90
2018-04-07T09:18:31.301Z,11.90
2018-04-07T09:20:59.368Z,12.00
2018-04-07T09:23:27.399Z,12.10
2018-04-07T09:25:55.435Z,12.20
2018-04-07T09:28:23.486Z,12.20
2018-04-07T09:30:51.555Z,12.30
2018-04-07T09:33:19.602Z,12.30
2018-04-07T09:35:47.699Z,12.40
2018-04-07T09:38:17.859Z,12.50
2018-04-07T09:40:45.892Z,12.60
2018-04-07T09:43:16.119Z,12.70
2018-04-07T09:45:44.146Z,12.80
2018-04-07T09:48:14.098Z,12.80
2018-04-07T09:50:42.142Z,12.90
2018-04-07T09:53:10.190Z,13.00
2018-04-07T09:55:39.011Z,13.10
2018-04-07T09:58:07.840Z,13.20
2018-04-07T10:00:36.648Z,13.30
2018-04-07T10:03:05.919Z,13.30
2018-04-07T10:05:33.963Z,13.40
2018-04-07T10:08:02.007Z,13.50
2018-04-07T10:10:30.074Z,13.60
2018-04-07T10:12:58.108Z,13.70
2018-04-07T10:15:26.151Z,13.80
2018-04-07T10:17:54.215Z,13.80
2018-04-07T10:20:22.255Z,13.80
2018-04-07T10:22:50.288Z,13.90
2018-04-07T10:25:18.351Z,13.90
2018-04-07T10:27:46.403Z,14.00
2018-04-07T10:30:15.243Z,14.20
2018-04-07T10:32:46.164Z,14.40
2018-04-07T10:35:14.200Z,14.40
2018-04-07T10:37:42.248Z,14.60
2018-04-07T10:40:11.299Z,14.60
2018-04-07T10:42:39.352Z,14.60
2018-04-07T10:45:07.423Z,14.70
2018-04-07T10:47:35.468Z,14.80
2018-04-07T10:50:03.507Z,14.80
2018-04-07T10:52:32.347Z,15.00
2018-04-07T10:55:00.379Z,15.00
2018-04-07T10:57:28.416Z,15.10
2018-04-07T10:59:56.504Z,15.20
2018-04-07T11:02:24.514Z,15.20
2018-04-07T11:04:52.551Z,15.30
2018-04-07T11:07:21.376Z,15.40
2018-04-07T11:09:49.416Z,15.40
2018-04-07T11:12:17.467Z,15.50
2018-04-07T11:14:45.524Z,15.50
2018-04-07T11:17:18.541Z,15.70
2018-04-07T11:19:46.550Z,15.80
2018-04-07T11:22:14.588Z,15.80
2018-04-07T11:24:43.424Z,16.00
2018-04-07T11:27:11.467Z,16.00
2018-04-07T11:29:39.511Z,16.10
2018-04-07T11:32:08.355Z,16.20
2018-04-07T11:34:37.168Z,16.30
2018-04-07T11:37:06.185Z,16.30
2018-04-07T11:39:34.208Z,16.40
2018-04-07T11:42:02.288Z,16.50
2018-04-07T11:44:30.327Z,16.60
2018-04-07T11:46:58.387Z,16.60
2018-04-07T11:49:27.216Z,16.80
2018-04-07T11:51:59.219Z,16.80
2018-04-07T11:54:27.248Z,16.80
2018-04-07T11:56:55.314Z,17.00
2018-04-07T11:59:23.378Z,17.00
2018-04-07T12:01:51.411Z,17.10
2018-04-07T12:04:20.249Z,17.30
2018-04-07T12:06:48.300Z,17.30
2018-04-07T12:09:21.247Z,17.40
2018-04-07T12:11:49.275Z,17.50
2018-04-07T12:14:17.311Z,17.70
2018-04-07T12:16:46.139Z,17.80
2018-04-07T12:19:14.191Z,17.80
2018-04-07T12:21:42.223Z,17.80
2018-04-07T12:24:10.275Z,17.90
2018-04-07T12:26:38.387Z,18.00
2018-04-07T12:29:07.188Z,18.20
2018-04-07T12:31:35.231Z,18.10
2018-04-07T12:34:03.311Z,18.20
2018-04-07T12:36:31.360Z,18.30
2018-04-07T12:38:59.398Z,18.40
2018-04-07T12:41:27.447Z,18.40
2018-04-07T12:43:55.483Z,18.60
2018-04-07T12:46:23.519Z,18.60
2018-04-07T12:48:55.623Z,18.70
2018-04-07T12:51:23.667Z,18.70
2018-04-07T12:53:51.712Z,18.80
2018-04-07T12:56:19.772Z,18.90
2018-04-07T12:58:47.831Z,18.90
2018-04-07T13:01:16.666Z,19.20
2018-04-07T13:03:44.695Z,19.10
2018-04-07T13:06:15.810Z,19.30
2018-04-07T13:08:43.867Z,19.30
2018-04-07T13:11:11.905Z,19.30
2018-04-07T13:13:39.955Z,19.30
2018-04-07T13:16:08.770Z,19.50
2018-04-07T13:18:39.877Z,19.50
2018-04-07T13:21:08.679Z,19.60
2018-04-07T13:23:36.720Z,19.60
2018-04-07T13:26:04.774Z,19.60
2018-04-07T13:28:32.826Z,19.70
2018-04-07T13:31:00.879Z,19.80
2018-04-07T13:33:38.444Z,19.90
2018-04-07T13:35:56.971Z,20.00
2018-04-07T13:38:25.023Z,20.00
2018-04-07T13:40:53.103Z,20.00
2018-04-07T13:43:21.139Z,20.00
2018-04-07T13:45:49.200Z,20.10
2018-04-07T13:48:17.231Z,20.10
2018-04-07T13:50:45.268Z,20.20
2018-04-07T13:53:13.336Z,20.20
2018-04-07T13:55:41.368Z,20.30
2018-04-07T13:58:10.172Z,20.30
2018-04-07T14:00:38.995Z,20.30
2018-04-07T14:03:07.036Z,20.30
2018-04-07T14:05:35.072Z,20.40
2018-04-07T14:08:03.152Z,20.60
2018-04-07T14:10:31.198Z,20.60
2018-04-07T14:12:59.259Z,20.70
2018-04-07T14:15:27.319Z,20.70
2018-04-07T14:17:55.359Z,20.70
2018-04-07T14:20:24.223Z,20.70
2018-04-07T14:22:52.268Z,20.70
2018-04-07T14:25:20.303Z,20.80
2018-04-07T14:27:48.339Z,20.80
2018-04-07T14:30:16.407Z,20.80
2018-04-07T14:32:44.467Z,20.80
2018-04-07T14:35:12.515Z,20.80
2018-04-07T14:37:40.547Z,20.90
2018-04-07T14:40:09.367Z,20.90
2018-04-07T14:42:37.467Z,20.90
2018-04-07T14:45:06.276Z,20.90
2018-04-07T14:47:34.329Z,20.90
2018-04-07T14:50:02.392Z,21.00
2018-04-07T14:52:30.457Z,21.10
2018-04-07T14:54:58.507Z,21.40
2018-04-07T14:57:26.562Z,21.80
2018-04-07T14:59:54.625Z,22.40
2018-04-07T15:02:23.807Z,23.40
2018-04-07T15:04:51.921Z,24.30
2018-04-07T15:07:19.960Z,25.10
2018-04-07T15:09:48.775Z,26.50
2018-04-07T15:12:16.831Z,26.50
2018-04-07T15:14:44.871Z,27.10
2018-04-07T15:17:12.953Z,27.20
2018-04-07T15:19:41.066Z,27.00
2018-04-07T15:22:09.087Z,26.40
2018-04-07T15:24:37.125Z,25.50
2018-04-07T15:27:05.158Z,24.50
2018-04-07T15:29:33.223Z,23.90
2018-04-07T15:32:03.420Z,23.30
2018-04-07T15:34:31.476Z,22.90
2018-04-07T15:36:59.510Z,22.50
2018-04-07T15:39:28.315Z,22.00
2018-04-07T15:41:56.374Z,22.00
2018-04-07T15:44:28.111Z,21.70
2018-04-07T15:46:56.162Z,21.70
2018-04-07T15:49:24.210Z,21.50
2018-04-07T15:51:52.268Z,21.40
2018-04-07T15:54:20.307Z,21.30
2018-04-07T15:56:49.131Z,21.20
2018-04-07T15:59:17.229Z,21.20
2018-04-07T16:01:45.227Z,21.20
2018-04-07T16:04:13.271Z,21.20
2018-04-07T16:06:41.335Z,21.20
2018-04-07T16:09:15.300Z,21.20
2018-04-07T16:11:43.350Z,21.20
2018-04-07T16:14:12.324Z,21.10
2018-04-07T16:16:40.395Z,21.10
2018-04-07T16:19:08.436Z,21.10
2018-04-07T16:21:36.495Z,21.10
2018-04-07T16:24:04.519Z,21.10
2018-04-07T16:26:32.567Z,21.20
2018-04-07T16:29:00.627Z,21.40
2018-04-07T16:31:28.698Z,21.90
2018-04-07T16:33:56.722Z,22.20
2018-04-07T16:36:25.532Z,22.10
2018-04-07T16:38:53.600Z,22.10
2018-04-07T16:41:22.487Z,22.50
2018-04-07T16:43:50.527Z,22.80
2018-04-07T16:46:18.564Z,22.90
2018-04-07T16:48:46.623Z,22.70
2018-04-07T16:51:14.655Z,22.60
2018-04-07T16:53:42.691Z,22.40
2018-04-07T16:56:21.528Z,22.30
2018-04-07T16:58:49.608Z,22.30
2018-04-07T17:01:17.639Z,22.50
2018-04-07T17:03:45.735Z,23.30
2018-04-07T17:06:13.753Z,24.60
2018-04-07T17:08:41.780Z,26.00
2018-04-07T17:11:15.811Z,26.90
2018-04-07T17:13:43.874Z,27.60
2018-04-07T17:17:09.747Z,28.20
2018-04-07T17:19:38.580Z,28.50
2018-04-07T17:22:07.400Z,28.60
2018-04-07T17:24:35.472Z,28.60
2018-04-07T17:27:03.527Z,28.60
2018-04-07T17:29:31.580Z,28.50
2018-04-07T17:32:04.607Z,28.20
2018-04-07T17:34:32.642Z,27.80
2018-04-07T17:37:00.703Z,27.30
2018-04-07T17:39:29.571Z,26.80
2018-04-07T17:41:57.622Z,26.30
2018-04-07T18:16:59.732Z,18.80
2018-04-07T18:19:27.815Z,18.60
2018-04-07T18:22:01.993Z,18.40
2018-04-07T18:24:30.076Z,18.20
2018-04-07T18:26:58.151Z,18.10
2018-04-07T18:29:26.253Z,18.00
2018-04-07T18:31:54.324Z,17.90
2018-04-07T18:34:22.399Z,17.80
2018-04-07T18:36:51.255Z,17.70
2018-04-07T18:39:19.348Z,17.70
2018-04-07T18:41:47.450Z,17.60
2018-04-07T18:44:16.274Z,17.50
2018-04-07T18:46:44.348Z,17.50
2018-04-07T18:49:12.410Z,17.40
2018-04-07T18:51:40.487Z,17.30
2018-04-07T18:54:08.571Z,17.30
2018-04-07T18:56:36.668Z,17.20
2018-04-07T18:59:04.703Z,17.10
2018-04-07T19:01:32.788Z,17.00
2018-04-07T19:04:00.880Z,17.00
2018-04-07T19:06:28.951Z,16.90
2018-04-07T19:08:56.988Z,16.90
2018-04-07T19:11:25.074Z,16.80
2018-04-07T19:13:53.196Z,16.80
2018-04-07T19:16:21.296Z,16.70
2018-04-07T19:18:49.331Z,16.70
2018-04-07T19:21:19.118Z,16.70
2018-04-07T19:23:47.204Z,16.70
2018-04-07T19:26:16.027Z,16.60
2018-04-07T19:28:44.115Z,16.60
2018-04-07T19:31:12.204Z,16.50
2018-04-07T19:33:40.255Z,16.40
2018-04-07T19:36:08.300Z,16.40
2018-04-07T19:38:36.352Z,16.40
2018-04-07T19:41:05.203Z,16.30
2018-04-07T19:43:33.238Z,16.20
2018-04-07T19:46:01.341Z,16.20
2018-04-07T19:48:29.459Z,16.10
2018-04-07T19:50:58.301Z,16.00
2018-04-07T19:53:26.391Z,16.00
2018-04-07T19:55:54.532Z,16.00
2018-04-07T19:58:22.602Z,15.90
2018-04-07T20:00:50.704Z,15.90
2018-04-07T20:03:18.771Z,15.80
2018-04-07T20:05:46.837Z,15.70
2018-04-07T20:08:14.967Z,15.70
2018-04-07T20:10:43.064Z,15.60
2018-04-07T20:13:11.199Z,15.60
2018-04-07T20:15:39.175Z,15.60
2018-04-07T20:18:07.290Z,15.60
2018-04-07T20:20:35.371Z,15.60
2018-04-07T20:23:03.417Z,15.50
2018-04-07T20:25:31.491Z,15.50
2018-04-07T20:27:59.571Z,15.40
2018-04-07T20:30:27.592Z,15.30
2018-04-07T20:32:56.441Z,15.20
2018-04-07T20:35:24.518Z,15.10
2018-04-07T20:37:52.590Z,15.00
2018-04-07T20:40:20.657Z,15.00
2018-04-07T20:42:48.724Z,14.90
2018-04-07T20:45:16.761Z,14.80
2018-04-07T20:47:44.813Z,14.70
2018-04-07T20:50:13.671Z,14.50
2018-04-07T20:52:41.744Z,14.40
2018-04-07T20:55:13.796Z,14.50
2018-04-07T20:57:41.867Z,14.50
2018-04-07T21:00:09.955Z,14.50
2018-04-07T21:02:38.064Z,14.60
2018-04-07T21:05:06.087Z,14.60
2018-04-07T21:07:34.149Z,14.60
2018-04-07T21:10:02.188Z,14.50
2018-04-07T21:12:30.266Z,14.50
2018-04-07T21:14:58.352Z,14.50
2018-04-07T21:17:26.392Z,14.40
2018-04-07T21:19:54.478Z,14.40
2018-04-07T21:22:22.568Z,14.40
2018-04-07T21:24:50.692Z,14.40
2018-04-07T21:27:18.747Z,14.40
2018-04-07T21:29:46.818Z,14.40
2018-04-07T21:32:14.897Z,14.40
2018-04-07T21:34:42.987Z,14.30
2018-04-07T21:37:11.136Z,14.30
2018-04-07T21:39:39.176Z,14.30
2018-04-07T21:42:07.235Z,14.30
2018-04-07T21:44:35.285Z,14.20
2018-04-07T21:47:03.334Z,14.10
2018-04-07T21:49:32.216Z,14.10
2018-04-07T21:52:01.063Z,14.10
2018-04-07T21:54:29.140Z,14.00
2018-04-07T21:56:57.231Z,14.00
2018-04-07T21:59:25.299Z,14.00
2018-04-07T22:01:53.368Z,14.00
2018-04-07T22:04:21.464Z,13.90
2018-04-07T22:06:50.298Z,13.80
2018-04-07T22:09:18.374Z,13.80
2018-04-07T22:11:46.427Z,13.70
2018-04-07T22:14:14.511Z,13.60
2018-04-07T22:16:42.592Z,13.50
2018-04-07T22:19:10.661Z,13.50
2018-04-07T22:21:38.739Z,13.40
2018-04-07T22:24:06.829Z,13.40
2018-04-07T22:26:34.940Z,13.40
2018-04-07T22:29:02.976Z,13.30
2018-04-07T22:31:31.029Z,13.10
2018-04-07T22:33:59.111Z,13.00
2018-04-07T22:36:27.187Z,12.90
2018-04-07T22:38:55.272Z,12.90
2018-04-07T22:41:23.393Z,12.90
2018-04-07T22:43:52.361Z,12.80
2018-04-07T22:46:20.451Z,12.80
2018-04-07T22:48:48.567Z,12.80
2018-04-07T22:51:16.656Z,12.80
2018-04-07T22:53:44.704Z,12.80
2018-04-07T22:56:12.751Z,12.80
2018-04-07T22:58:40.835Z,12.80
2018-04-07T23:01:14.896Z,12.70
2018-04-07T23:03:42.923Z,12.70
2018-04-07T23:06:11.820Z,12.60
2018-04-07T23:08:39.906Z,12.50
2018-04-07T23:11:07.979Z,12.60
2018-04-07T23:13:36.071Z,12.60
2018-04-07T23:16:04.908Z,12.50
2018-04-07T23:18:32.983Z,12.40
2018-04-07T23:21:01.076Z,12.40
2018-04-07T23:23:29.156Z,12.40
2018-04-07T23:25:57.218Z,12.40
2018-04-07T23:28:25.320Z,12.40
2018-04-07T23:30:54.184Z,12.40
2018-04-07T23:33:22.217Z,12.30
2018-04-07T23:35:50.291Z,12.30
2018-04-07T23:38:18.340Z,12.30
2018-04-07T23:40:46.428Z,12.30
2018-04-07T23:43:14.520Z,12.30
2018-04-07T23:45:42.522Z,12.30
2018-04-07T23:48:10.611Z,12.30
2018-04-07T23:50:38.687Z,12.30
2018-04-07T23:53:06.767Z,12.20
2018-04-07T23:55:34.858Z,12.20
2018-04-07T23:58:02.935Z,12.20
